Quetta Weather



Quetta's Current Weather

Temprature 27.08o clear sky

clear sky

Rain: 0 %

Min Temprature27.08o
Max Temprature27.08o
Humidity12
Wind Speed3.24 m/h
Sun Rise05:43:07
Sun Set19:13:47
Current Time: 08-May-2021 16:15:07
Lat/Lon: 30.199, 67.0097




Quetta's Geo Location



Quetta's Weather Forecast

Time Overall Temp Min Temp Max Temp Humidity Wind Speed Rain
08-May-2021 (Sat)
17:00:00 clear sky 26.940 26.940 26.940 12 3.38 m/h 0 %
20:00:00 clear sky 26.170 24.630 26.170 14 3.49 m/h 0 %
23:00:00 clear sky 23.810 22.250 23.810 19 0.72 m/h 0 %
09-May-2021 (Sun)
02:00:00 clear sky 20.390 20.390 20.390 24 0.59 m/h 0 %
05:00:00 clear sky 18.960 18.960 18.960 26 0.74 m/h 0 %
08:00:00 clear sky 23.280 23.280 23.280 18 0.85 m/h 0 %
11:00:00 clear sky 26.090 26.090 26.090 14 1.96 m/h 0 %
14:00:00 clear sky 28.130 28.130 28.130 11 2.57 m/h 0 %
17:00:00 clear sky 28.510 28.510 28.510 10 3.88 m/h 0 %
20:00:00 broken clouds 25.780 25.780 25.780 16 3.63 m/h 0 %
23:00:00 scattered clouds 23.230 23.230 23.230 21 0.99 m/h 0 %
10-May-2021 (Mon)
02:00:00 clear sky 21.390 21.390 21.390 24 1.06 m/h 0 %
05:00:00 clear sky 19.980 19.980 19.980 26 0.31 m/h 0 %
08:00:00 clear sky 22.580 22.580 22.580 26 2.99 m/h 0 %
11:00:00 clear sky 26.490 26.490 26.490 17 2.01 m/h 0 %
14:00:00 scattered clouds 28.910 28.910 28.910 12 4.45 m/h 0 %
17:00:00 scattered clouds 28.700 28.700 28.700 12 7.07 m/h 0 %
20:00:00 broken clouds 23.670 23.670 23.670 28 4.09 m/h 0 %
23:00:00 scattered clouds 21.540 21.540 21.540 36 1.38 m/h 0 %
11-May-2021 (Tue)
02:00:00 few clouds 20.740 20.740 20.740 37 1.79 m/h 0 %
05:00:00 few clouds 19.410 19.410 19.410 40 1.89 m/h 0 %
08:00:00 broken clouds 21.710 21.710 21.710 33 2.37 m/h 0 %
11:00:00 broken clouds 25.100 25.100 25.100 24 4.61 m/h 0 %
14:00:00 few clouds 27.100 27.100 27.100 18 7.89 m/h 0 %
17:00:00 few clouds 26.730 26.730 26.730 16 9.06 m/h 0 %
20:00:00 clear sky 23.750 23.750 23.750 21 8.27 m/h 0 %
23:00:00 clear sky 21.240 21.240 21.240 18 2.5 m/h 0 %
12-May-2021 (Wed)
02:00:00 clear sky 19.330 19.330 19.330 22 1.62 m/h 0 %
05:00:00 clear sky 17.470 17.470 17.470 26 2.43 m/h 0 %
08:00:00 clear sky 20.280 20.280 20.280 23 3.51 m/h 0 %
11:00:00 clear sky 24.120 24.120 24.120 18 3.94 m/h 0 %
14:00:00 clear sky 26.250 26.250 26.250 12 7.85 m/h 0 %
17:00:00 clear sky 26.410 26.410 26.410 10 6.74 m/h 0 %
20:00:00 clear sky 23.710 23.710 23.710 11 5.42 m/h 0 %
23:00:00 clear sky 20.710 20.710 20.710 13 1.66 m/h 0 %
13-May-2021 (Thu)
02:00:00 clear sky 18.530 18.530 18.530 16 1.42 m/h 0 %
05:00:00 clear sky 17.270 17.270 17.270 20 2.43 m/h 0 %
08:00:00 clear sky 20.540 20.540 20.540 16 2.89 m/h 0 %
11:00:00 clear sky 24.440 24.440 24.440 11 4.12 m/h 0 %
14:00:00 clear sky 26.620 26.620 26.620 8 6.42 m/h 0 %

Famous Cities (60)